Time;durP1;ratioP1;P1;durP2;ratioP2;P2;SDS_P1;SDS_P2;PMS_P1;PMS_P2;Temp;Humidity;BMP_temperature;BMP_pressure;BME280_temperature;BME280_humidity;BME280_pressure;Samples;Min_cycle;Max_cycle;Signal;HPM_P1;HPM_P2
2022/05/09 00:00:03;;;;;;;14.80;5.63;;;5.80;99.90;;;;;;5046979;28;20044;-78
2022/05/09 00:02:28;;;;;;;14.43;4.95;;;5.80;99.90;;;;;;5048326;28;20487;-78
2022/05/09 00:04:54;;;;;;;12.68;4.45;;;5.80;99.90;;;;;;5047164;28;20044;-80
2022/05/09 00:07:19;;;;;;;14.60;5.35;;;5.80;99.90;;;;;;5048195;28;20559;-79
2022/05/09 00:09:45;;;;;;;21.67;5.68;;;5.70;99.90;;;;;;5046991;28;20049;-79
2022/05/09 00:12:11;;;;;;;20.10;5.57;;;5.60;99.90;;;;;;5048394;28;20045;-79
2022/05/09 00:14:37;;;;;;;18.10;6.25;;;5.60;99.90;;;;;;5048085;28;20135;-78
2022/05/09 00:17:03;;;;;;;32.38;8.32;;;5.70;99.90;;;;;;5049183;28;20033;-78
2022/05/09 00:19:29;;;;;;;37.78;6.70;;;5.70;99.90;;;;;;5046934;28;20040;-80
2022/05/09 00:21:55;;;;;;;21.48;6.72;;;5.80;99.90;;;;;;5046773;28;20048;-80
2022/05/09 00:24:21;;;;;;;18.17;5.65;;;5.60;99.90;;;;;;5047905;28;20061;-80
2022/05/09 00:26:49;;;;;;;14.95;4.90;;;5.40;99.90;;;;;;5048189;28;20186;-81
2022/05/09 00:29:16;;;;;;;24.35;6.88;;;5.40;99.90;;;;;;5046265;28;20081;-80
2022/05/09 00:31:43;;;;;;;13.68;4.93;;;5.40;99.90;;;;;;5047522;28;20063;-79
2022/05/09 00:34:10;;;;;;;14.40;5.85;;;5.40;99.90;;;;;;5048241;28;20347;-79
2022/05/09 00:36:37;;;;;;;14.90;4.95;;;5.40;99.90;;;;;;5048322;28;20255;-79
2022/05/09 00:39:03;;;;;;;15.32;5.32;;;5.40;99.90;;;;;;5046639;28;20511;-80
2022/05/09 00:41:31;;;;;;;42.92;6.32;;;5.30;99.90;;;;;;5047863;28;20048;-79
2022/05/09 00:43:58;;;;;;;15.25;5.60;;;5.30;99.90;;;;;;5045433;28;20124;-79
2022/05/09 00:46:25;;;;;;;10.45;5.65;;;5.20;99.90;;;;;;5047119;28;20053;-79
2022/05/09 00:48:51;;;;;;;9.10;4.20;;;5.10;99.90;;;;;;5029312;28;20041;-79
2022/05/09 00:51:23;;;;;;;14.88;5.93;;;5.20;99.90;;;;;;5046055;28;20124;-79
2022/05/09 00:53:51;;;;;;;16.27;5.35;;;5.30;99.90;;;;;;5046322;28;20336;-80
2022/05/09 00:56:24;;;;;;;10.52;3.97;;;5.40;99.90;;;;;;5046529;28;20152;-79
2022/05/09 00:59:01;;;;;;;23.55;5.97;;;5.30;99.90;;;;;;5046914;28;20077;-79
2022/05/09 01:01:27;;;;;;;9.38;4.88;;;5.20;99.90;;;;;;5047422;28;20060;-79
2022/05/09 01:04:05;;;;;;;18.27;5.25;;;5.20;99.90;;;;;;5045899;28;20287;-80
2022/05/09 01:06:32;;;;;;;11.05;4.57;;;5.20;99.90;;;;;;5046248;28;20056;-79
2022/05/09 01:08:57;;;;;;;13.30;4.80;;;4.90;99.90;;;;;;5045537;28;20186;-80
2022/05/09 01:11:26;;;;;;;10.55;4.88;;;4.70;99.90;;;;;;5046717;28;20056;-79
2022/05/09 01:13:57;;;;;;;12.05;4.55;;;4.80;99.90;;;;;;5045884;28;20082;-79
2022/05/09 01:16:25;;;;;;;9.43;4.30;;;4.80;99.90;;;;;;5047432;28;20525;-80
2022/05/09 01:18:52;;;;;;;26.40;6.10;;;4.90;99.90;;;;;;5047638;28;20360;-80
2022/05/09 01:21:38;;;;;;;6.68;4.30;;;4.90;99.90;;;;;;5046986;28;20048;-79
2022/05/09 01:24:06;;;;;;;18.15;5.95;;;4.90;99.90;;;;;;5046489;28;20044;-79
2022/05/09 01:26:33;;;;;;;12.35;5.28;;;4.90;99.90;;;;;;5047317;28;20128;-79
2022/05/09 01:39:49;;;;;;;11.73;5.45;;;4.80;99.90;;;;;;4818731;22;21963;-80
2022/05/09 01:42:52;;;;;;;12.13;4.05;;;4.80;99.90;;;;;;4962732;23;20044;-78
2022/05/09 01:45:17;;;;;;;22.38;4.85;;;4.80;99.90;;;;;;4972089;28;20050;-80
2022/05/09 01:50:27;;;;;;;18.17;6.05;;;4.80;99.90;;;;;;4987004;28;20563;-80
2022/05/09 01:52:54;;;;;;;21.42;5.93;;;4.70;99.90;;;;;;4985747;28;20319;-80
2022/05/09 01:55:19;;;;;;;12.55;5.20;;;4.80;99.90;;;;;;4986945;28;20038;-78
2022/05/09 01:57:45;;;;;;;14.63;6.35;;;4.70;99.90;;;;;;4986369;28;20566;-80
2022/05/09 02:00:11;;;;;;;14.88;6.35;;;4.90;99.90;;;;;;4986915;28;20046;-79
2022/05/09 02:02:39;;;;;;;16.38;5.18;;;4.90;99.90;;;;;;5002319;28;20081;-79
2022/05/09 02:05:05;;;;;;;12.27;4.75;;;4.60;99.90;;;;;;4987020;28;20050;-78
2022/05/09 02:07:30;;;;;;;11.52;4.95;;;4.50;99.90;;;;;;4987088;28;20133;-78
2022/05/09 02:09:56;;;;;;;18.83;5.72;;;4.50;99.90;;;;;;4986492;28;20472;-79
2022/05/09 02:12:22;;;;;;;17.33;6.90;;;4.70;99.90;;;;;;4986389;28;20045;-79
2022/05/09 02:14:48;;;;;;;15.18;6.28;;;4.60;99.90;;;;;;4985865;28;20048;-78
2022/05/09 02:17:15;;;;;;;17.92;5.57;;;4.80;99.90;;;;;;4987023;28;20051;-78
2022/05/09 02:19:41;;;;;;;16.17;5.82;;;4.70;99.90;;;;;;4986318;28;20054;-79
2022/05/09 02:22:11;;;;;;;18.48;5.82;;;4.70;99.90;;;;;;4986769;28;20045;-77
2022/05/09 02:24:39;;;;;;;10.80;6.28;;;4.70;99.90;;;;;;4986709;28;20046;-79
2022/05/09 02:27:05;;;;;;;7.70;4.63;;;4.70;99.90;;;;;;4985717;28;20050;-79
2022/05/09 02:29:31;;;;;;;22.98;6.65;;;4.70;99.90;;;;;;4984666;28;20082;-79
2022/05/09 02:31:59;;;;;;;21.70;7.18;;;4.60;99.90;;;;;;4985304;28;20084;-79
2022/05/09 02:34:25;;;;;;;24.27;6.82;;;4.80;99.90;;;;;;4986461;28;20126;-79
2022/05/09 02:36:50;;;;;;;12.98;6.30;;;4.80;99.90;;;;;;4986280;28;20057;-80
2022/05/09 02:39:16;;;;;;;10.02;5.35;;;4.70;99.90;;;;;;4985384;28;20050;-79
2022/05/09 02:41:42;;;;;;;32.35;6.93;;;4.80;99.90;;;;;;4986196;28;20046;-79
2022/05/09 02:44:07;;;;;;;13.93;5.43;;;4.80;99.90;;;;;;4998014;28;20195;-78
2022/05/09 02:46:33;;;;;;;23.45;7.32;;;4.90;99.90;;;;;;5005233;28;20124;-79
2022/05/09 02:49:00;;;;;;;24.58;7.30;;;4.90;99.90;;;;;;4988610;28;20045;-79
2022/05/09 02:51:27;;;;;;;18.55;6.28;;;4.80;99.90;;;;;;5004559;28;20057;-79
2022/05/09 02:53:55;;;;;;;16.73;7.03;;;5.00;99.90;;;;;;5004708;28;20045;-79
2022/05/09 02:56:21;;;;;;;15.13;6.22;;;5.00;99.90;;;;;;5005819;28;20124;-79
2022/05/09 02:58:47;;;;;;;35.03;8.25;;;5.00;99.90;;;;;;5004834;28;20381;-80
2022/05/09 03:01:12;;;;;;;22.92;8.98;;;5.00;99.90;;;;;;5005920;28;20048;-79
2022/05/09 03:06:22;;;;;;;11.38;4.53;;;5.00;99.90;;;;;;5005444;28;20050;-80
2022/05/09 03:08:48;;;;;;;15.73;4.82;;;5.00;99.90;;;;;;5005958;28;20049;-81
2022/05/09 03:11:13;;;;;;;15.77;5.38;;;5.00;99.90;;;;;;5009454;28;20120;-79
2022/05/09 03:13:39;;;;;;;14.68;6.32;;;5.00;99.90;;;;;;5009011;28;20049;-78
2022/05/09 03:16:06;;;;;;;13.90;5.78;;;4.90;99.90;;;;;;5010306;28;20069;-79
2022/05/09 03:18:32;;;;;;;16.02;5.40;;;4.80;99.90;;;;;;5009892;28;20042;-80
2022/05/09 03:20:58;;;;;;;13.73;5.85;;;4.70;99.90;;;;;;5009908;28;20037;-79
2022/05/09 03:23:23;;;;;;;8.77;5.13;;;4.80;99.90;;;;;;5009467;28;20048;-80
2022/05/09 03:25:50;;;;;;;9.90;4.78;;;4.70;99.90;;;;;;5008601;28;20042;-79
2022/05/09 03:28:21;;;;;;;9.25;4.93;;;4.80;99.90;;;;;;5008731;28;20042;-79
2022/05/09 03:30:48;;;;;;;9.00;4.90;;;4.60;99.90;;;;;;5011129;28;20041;-78
2022/05/09 03:33:15;;;;;;;22.63;6.03;;;4.50;99.90;;;;;;5010860;28;20042;-80
2022/05/09 03:35:42;;;;;;;17.95;5.38;;;4.40;99.90;;;;;;5009365;28;20061;-80
2022/05/09 03:38:08;;;;;;;11.10;4.82;;;4.30;99.90;;;;;;5011367;28;20041;-80
2022/05/09 03:40:34;;;;;;;11.95;5.05;;;4.10;99.90;;;;;;4992722;28;20084;-79
2022/05/09 03:43:00;;;;;;;11.38;5.03;;;4.10;99.90;;;;;;5009966;28;20097;-80
2022/05/09 03:45:27;;;;;;;10.77;4.90;;;4.10;99.90;;;;;;5008662;28;20512;-82
2022/05/09 03:47:54;;;;;;;10.93;4.95;;;4.10;99.90;;;;;;5009496;28;20080;-80
2022/05/09 03:50:20;;;;;;;18.30;5.32;;;4.10;99.90;;;;;;5010658;28;20042;-77
2022/05/09 03:52:46;;;;;;;8.02;4.53;;;4.20;99.90;;;;;;5008645;28;20124;-79
2022/05/09 03:55:12;;;;;;;15.45;4.72;;;4.10;99.90;;;;;;5010141;28;20120;-81
2022/05/09 03:58:04;;;;;;;15.77;5.20;;;4.10;99.90;;;;;;5013721;28;20049;-81
2022/05/09 04:00:33;;;;;;;10.38;5.00;;;4.10;99.90;;;;;;5013309;28;20054;-81
2022/05/09 04:03:00;;;;;;;8.75;5.32;;;4.20;99.90;;;;;;5014419;28;20099;-81
2022/05/09 04:05:30;;;;;;;10.40;5.28;;;4.30;99.90;;;;;;5014011;28;20042;-79
2022/05/09 04:07:57;;;;;;;10.25;5.57;;;4.20;99.90;;;;;;5011870;28;20053;-80
2022/05/09 04:10:27;;;;;;;9.13;4.72;;;4.20;99.90;;;;;;5008486;28;20100;-79
2022/05/09 04:12:52;;;;;;;12.40;5.05;;;4.20;99.90;;;;;;5007972;28;20040;-80
2022/05/09 04:18:04;;;;;;;15.75;7.18;;;4.30;99.90;;;;;;5009842;28;20056;-78
2022/05/09 04:20:30;;;;;;;11.73;5.82;;;4.40;99.90;;;;;;5009540;28;20042;-80
2022/05/09 04:23:00;;;;;;;9.20;5.30;;;4.40;99.90;;;;;;5007967;28;20045;-80
2022/05/09 04:25:26;;;;;;;13.75;6.07;;;4.30;99.90;;;;;;5008666;28;20053;-80
2022/05/09 04:27:54;;;;;;;16.33;4.53;;;4.20;99.90;;;;;;5007761;28;20412;-80
2022/05/09 04:30:19;;;;;;;11.68;4.82;;;4.20;99.90;;;;;;5010137;28;20467;-78
2022/05/09 04:32:45;;;;;;;7.65;3.92;;;4.20;99.90;;;;;;5008071;28;20050;-80
2022/05/09 04:35:17;;;;;;;7.38;4.35;;;4.50;99.90;;;;;;5008583;28;20411;-79
2022/05/09 04:37:47;;;;;;;10.07;4.53;;;4.60;99.90;;;;;;5008030;28;20053;-80
2022/05/09 04:40:17;;;;;;;7.10;4.43;;;4.60;99.90;;;;;;5008277;28;20105;-79
2022/05/09 04:42:43;;;;;;;;;;;4.90;99.90;;;;;;5006266;28;20054;-80
2022/05/09 04:45:11;;;;;;;8.45;3.67;;;5.40;99.90;;;;;;5006603;28;20937;-79
2022/05/09 04:47:37;;;;;;;9.20;3.60;;;5.40;99.90;;;;;;5008602;28;20056;-80
2022/05/09 04:50:03;;;;;;;6.53;4.10;;;5.20;99.90;;;;;;5008098;28;20089;-80
2022/05/09 04:52:29;;;;;;;6.75;4.38;;;5.30;99.90;;;;;;5023438;28;20378;-80
2022/05/09 04:54:54;;;;;;;7.63;4.28;;;5.30;99.90;;;;;;4990418;28;20057;-81
2022/05/09 04:57:20;;;;;;;5.28;3.55;;;5.20;99.90;;;;;;5005444;28;20627;-76
2022/05/09 04:59:46;;;;;;;11.48;4.55;;;5.30;99.90;;;;;;5007910;28;21083;-79
2022/05/09 05:02:11;;;;;;;20.08;5.95;;;5.40;99.90;;;;;;5006668;28;20046;-80
2022/05/09 05:04:37;;;;;;;13.60;4.90;;;5.50;99.90;;;;;;5006818;28;20041;-79
2022/05/09 05:07:02;;;;;;;10.43;5.00;;;5.60;99.90;;;;;;5007768;28;20144;-77
2022/05/09 05:09:30;;;;;;;17.33;6.05;;;5.60;99.90;;;;;;5008046;28;20084;-80
2022/05/09 05:11:56;;;;;;;10.05;5.38;;;5.80;99.90;;;;;;5022355;28;20104;-79
2022/05/09 05:14:22;;;;;;;10.77;5.47;;;5.90;99.90;;;;;;5006679;28;20057;-79
2022/05/09 05:16:59;;;;;;;16.48;6.90;;;5.90;99.90;;;;;;5006589;28;20050;-79
2022/05/09 05:19:31;;;;;;;14.00;7.82;;;6.00;99.90;;;;;;5007413;28;20116;-82
2022/05/09 05:21:59;;;;;;;14.35;7.30;;;6.10;99.90;;;;;;5005881;28;20065;-80
2022/05/09 05:24:25;;;;;;;10.55;5.93;;;6.10;99.90;;;;;;5005978;28;20049;-80
2022/05/09 05:26:52;;;;;;;16.05;7.85;;;6.20;99.90;;;;;;5006011;28;20045;-79
2022/05/09 05:29:18;;;;;;;19.73;7.53;;;6.30;99.90;;;;;;5005505;28;20054;-79
2022/05/09 05:31:44;;;;;;;18.92;8.23;;;6.40;99.90;;;;;;5006073;28;20050;-79
2022/05/09 05:34:10;;;;;;;11.55;7.50;;;6.40;99.90;;;;;;5005042;28;20048;-79
2022/05/09 05:36:36;;;;;;;27.05;8.68;;;6.50;99.90;;;;;;5006031;28;20054;-78
2022/05/09 05:39:03;;;;;;;19.23;8.45;;;6.60;99.90;;;;;;5007436;28;20511;-79
2022/05/09 05:41:31;;;;;;;22.35;6.97;;;6.70;99.90;;;;;;5006217;28;20038;-78
2022/05/09 05:43:57;;;;;;;20.65;8.82;;;6.70;99.90;;;;;;4988320;28;20062;-78
2022/05/09 05:46:23;;;;;;;17.40;6.50;;;6.80;99.90;;;;;;5007977;28;20765;-78
2022/05/09 05:48:49;;;;;;;20.55;7.07;;;7.00;99.90;;;;;;5006723;28;20034;-78
2022/05/09 05:51:18;;;;;;;15.73;8.10;;;7.20;99.90;;;;;;5007181;28;20373;-79
2022/05/09 05:53:44;;;;;;;19.13;7.25;;;7.20;99.90;;;;;;5021786;28;20049;-79
2022/05/09 05:56:11;;;;;;;17.80;8.50;;;7.40;99.90;;;;;;5005719;28;20077;-79
2022/05/09 05:58:36;;;;;;;21.77;8.27;;;7.30;99.90;;;;;;5005849;28;20407;-78
2022/05/09 06:01:02;;;;;;;23.33;7.22;;;7.50;99.90;;;;;;4989203;28;20141;-78
2022/05/09 06:03:28;;;;;;;21.05;9.52;;;7.60;99.90;;;;;;5006792;28;20500;-78
2022/05/09 06:05:54;;;;;;;18.30;7.35;;;7.70;99.90;;;;;;5005412;28;20500;-78
2022/05/09 06:08:19;;;;;;;23.42;8.23;;;7.90;99.90;;;;;;5005152;28;20161;-78
2022/05/09 06:10:46;;;;;;;19.35;8.15;;;7.90;99.90;;;;;;4988863;28;20041;-77
2022/05/09 06:13:11;;;;;;;23.92;8.25;;;8.00;99.90;;;;;;5003773;28;20519;-77
2022/05/09 06:15:38;;;;;;;22.13;7.93;;;8.10;99.90;;;;;;5004855;28;20049;-76
2022/05/09 06:18:08;;;;;;;20.42;8.98;;;8.30;99.90;;;;;;5004713;28;20139;-78
2022/05/09 06:20:36;;;;;;;19.97;8.37;;;8.50;99.90;;;;;;5006640;28;20092;-77
2022/05/09 06:23:03;;;;;;;22.45;7.10;;;8.40;99.90;;;;;;4988620;28;20289;-78
2022/05/09 06:25:31;;;;;;;23.63;9.05;;;8.70;99.90;;;;;;5007541;28;20049;-78
2022/05/09 06:28:00;;;;;;;18.38;8.07;;;8.70;99.90;;;;;;5005044;28;20040;-79
2022/05/09 06:30:27;;;;;;;33.55;10.27;;;9.00;99.90;;;;;;5004350;28;20065;-78
2022/05/09 06:32:54;;;;;;;25.63;9.73;;;9.20;99.90;;;;;;5005922;28;20060;-79
2022/05/09 06:35:24;;;;;;;44.03;9.07;;;9.30;99.90;;;;;;5004494;28;20046;-78
2022/05/09 06:38:03;;;;;;;18.92;7.55;;;9.50;99.90;;;;;;4988281;28;20038;-78
2022/05/09 06:40:30;;;;;;;23.58;8.82;;;9.50;99.90;;;;;;4989567;28;20057;-78
2022/05/09 06:42:57;;;;;;;23.38;7.95;;;9.50;99.90;;;;;;5004341;28;20061;-80
2022/05/09 06:45:24;;;;;;;27.27;8.75;;;9.70;99.90;;;;;;5003551;28;20091;-78
2022/05/09 06:47:52;;;;;;;15.95;5.90;;;9.70;99.90;;;;;;5006068;28;20030;-79
2022/05/09 06:50:20;;;;;;;17.63;6.20;;;10.20;99.90;;;;;;5004584;28;20046;-79
2022/05/09 06:52:45;;;;;;;13.88;7.05;;;10.10;99.90;;;;;;5006224;28;20042;-79
2022/05/09 06:55:12;;;;;;;14.98;5.55;;;10.20;99.90;;;;;;5004774;28;20420;-78
2022/05/09 06:57:43;;;;;;;13.90;6.15;;;10.30;99.90;;;;;;5005235;28;20038;-79
2022/05/09 07:00:15;;;;;;;16.17;6.68;;;10.30;99.90;;;;;;5004468;28;21172;-78
2022/05/09 07:02:41;;;;;;;21.85;6.28;;;10.80;99.90;;;;;;5004364;28;20048;-78
2022/05/09 07:05:09;;;;;;;17.90;5.45;;;12.30;99.90;;;;;;5005920;28;20140;-78
2022/05/09 07:07:35;;;;;;;18.77;7.40;;;13.50;99.90;;;;;;5020675;28;20104;-78
2022/05/09 07:10:01;;;;;;;16.30;4.97;;;14.40;99.90;;;;;;5004526;28;20041;-78
2022/05/09 07:12:26;;;;;;;14.52;6.13;;;14.70;99.90;;;;;;5003444;28;20042;-79
2022/05/09 07:14:52;;;;;;;13.35;4.90;;;14.70;99.90;;;;;;5004609;28;20042;-80
2022/05/09 07:17:17;;;;;;;11.55;4.25;;;15.40;99.90;;;;;;5005673;28;20496;-79
2022/05/09 07:19:44;;;;;;;16.67;3.80;;;15.70;99.90;;;;;;5021764;28;20046;-79
2022/05/09 07:22:10;;;;;;;16.17;4.90;;;15.40;99.90;;;;;;5004151;28;20077;-78
2022/05/09 07:24:36;;;;;;;16.40;5.65;;;16.60;99.90;;;;;;5004295;28;20048;-77
2022/05/09 07:27:02;;;;;;;14.30;4.28;;;17.00;99.90;;;;;;5004898;28;20065;-78
2022/05/09 07:29:27;;;;;;;9.40;3.70;;;17.10;99.90;;;;;;5004771;28;20049;-78
2022/05/09 07:31:53;;;;;;;19.20;7.20;;;15.20;99.90;;;;;;5004509;28;20529;-79
2022/05/09 07:34:19;;;;;;;17.80;5.47;;;14.80;99.90;;;;;;4987762;28;20570;-79
2022/05/09 07:36:44;;;;;;;9.93;4.22;;;14.60;99.90;;;;;;5004267;28;20471;-79
2022/05/09 07:39:10;;;;;;;16.30;3.60;;;14.30;99.90;;;;;;5003930;28;20038;-79
2022/05/09 07:41:35;;;;;;;15.77;5.32;;;14.40;99.90;;;;;;5004300;28;20404;-79
2022/05/09 07:44:01;;;;;;;13.40;4.00;;;14.30;99.90;;;;;;5004425;28;20104;-78
2022/05/09 07:46:27;;;;;;;20.23;5.22;;;14.60;99.90;;;;;;5005401;28;20480;-79
2022/05/09 07:48:53;;;;;;;12.07;3.78;;;14.10;99.90;;;;;;5005390;28;20337;-79
2022/05/09 07:51:19;;;;;;;17.35;4.40;;;14.50;99.90;;;;;;5004134;28;20054;-79
2022/05/09 07:53:45;;;;;;;15.70;4.65;;;14.40;99.90;;;;;;5003826;28;20125;-78
2022/05/09 07:56:11;;;;;;;12.70;4.25;;;14.10;99.90;;;;;;5006311;28;20054;-79
2022/05/09 07:58:37;;;;;;;15.10;4.28;;;14.30;99.90;;;;;;5006456;28;20046;-79
2022/05/09 08:01:04;;;;;;;25.13;6.90;;;14.50;99.90;;;;;;5007508;28;20054;-76
2022/05/09 08:03:33;;;;;;;9.05;4.10;;;14.70;99.90;;;;;;5008632;28;20042;-79
2022/05/09 08:06:00;;;;;;;11.93;4.68;;;14.80;99.90;;;;;;5008227;28;20080;-78
2022/05/09 08:08:30;;;;;;;12.52;3.75;;;15.10;99.90;;;;;;5006965;28;20080;-78
2022/05/09 08:10:57;;;;;;;;;;;15.10;99.90;;;;;;5008779;28;20085;-79
2022/05/09 08:13:25;;;;;;;42.30;5.35;;;15.00;99.90;;;;;;5005822;28;19925;-78
2022/05/09 08:15:51;;;;;;;13.32;3.85;;;15.10;99.90;;;;;;4991093;28;20128;-79
2022/05/09 08:18:19;;;;;;;13.48;5.13;;;15.20;99.90;;;;;;5008179;28;20038;-79
2022/05/09 08:20:45;;;;;;;11.13;3.75;;;15.30;99.90;;;;;;5007129;28;20084;-79
2022/05/09 08:23:15;;;;;;;13.68;5.05;;;15.80;99.90;;;;;;5008011;28;20069;-79
2022/05/09 08:25:43;;;;;;;10.40;3.38;;;15.60;99.90;;;;;;5006819;28;20050;-80
2022/05/09 08:28:09;;;;;;;11.93;3.47;;;15.80;99.90;;;;;;5007206;28;20046;-78
2022/05/09 08:30:36;;;;;;;9.35;3.53;;;15.70;99.90;;;;;;5006831;28;20400;-79
2022/05/09 08:33:14;;;;;;;10.57;3.38;;;15.90;99.90;;;;;;5006850;28;20033;-80
2022/05/09 08:35:39;;;;;;;18.45;4.80;;;15.70;99.90;;;;;;5006541;28;20061;-79
2022/05/09 08:38:05;;;;;;;8.63;2.88;;;16.20;99.90;;;;;;5006850;28;20034;-79
2022/05/09 08:40:34;;;;;;;6.80;2.65;;;16.30;99.90;;;;;;5008280;28;20081;-79
2022/05/09 08:43:40;;;;;;;11.40;2.63;;;16.40;99.90;;;;;;4989423;28;20054;-80
2022/05/09 08:46:19;;;;;;;10.75;3.08;;;16.30;99.90;;;;;;5006435;28;20289;-80
2022/05/09 08:49:06;;;;;;;9.88;3.28;;;16.30;99.90;;;;;;5006757;28;20049;-80
2022/05/09 08:51:58;;;;;;;11.90;5.05;;;16.60;99.90;;;;;;5007862;28;20041;-79
2022/05/09 08:54:25;;;;;;;12.65;3.05;;;16.80;99.90;;;;;;4989037;28;20054;-79
2022/05/09 08:56:57;;;;;;;9.38;2.60;;;17.00;99.90;;;;;;5005773;28;20066;-80
2022/05/09 08:59:37;;;;;;;9.35;2.65;;;16.80;99.90;;;;;;5005906;28;20153;-80
2022/05/09 09:02:15;;;;;;;9.98;4.55;;;16.80;99.90;;;;;;5006655;28;20069;-77
2022/05/09 09:04:51;;;;;;;7.63;2.40;;;16.90;99.90;;;;;;5007510;28;20092;-78
2022/05/09 09:07:45;;;;;;;10.07;3.25;;;17.20;99.90;;;;;;5006964;28;20038;-79
2022/05/09 09:10:22;;;;;;;11.43;2.40;;;17.40;99.90;;;;;;5007118;28;20053;-79
2022/05/09 09:13:07;;;;;;;9.43;3.78;;;17.20;99.90;;;;;;5006083;28;20094;-79
2022/05/09 09:16:01;;;;;;;10.48;3.67;;;17.50;99.90;;;;;;4990185;28;20049;-80
2022/05/09 09:18:40;;;;;;;5.43;1.83;;;17.60;99.90;;;;;;4989916;28;20103;-79
2022/05/09 09:21:25;;;;;;;5.25;1.73;;;17.80;99.90;;;;;;5007197;28;20099;-80
2022/05/09 09:24:21;;;;;;;5.78;2.30;;;17.70;99.90;;;;;;5007673;28;20427;-80
2022/05/09 09:26:58;;;;;;;8.18;2.53;;;17.90;99.90;;;;;;5006308;28;20046;-78
2022/05/09 09:29:34;;;;;;;10.07;3.13;;;17.90;99.90;;;;;;4989471;28;20386;-79
2022/05/09 09:32:05;;;;;;;7.75;2.10;;;18.00;99.90;;;;;;5007060;28;20061;-80
2022/05/09 09:34:34;;;;;;;10.15;2.88;;;18.20;99.90;;;;;;5005883;28;20049;-79
2022/05/09 09:37:11;;;;;;;7.65;2.40;;;18.30;99.90;;;;;;5006040;28;20127;-79
2022/05/09 09:39:37;;;;;;;13.43;2.42;;;18.40;99.90;;;;;;5005631;28;20484;-79
2022/05/09 09:42:03;;;;;;;8.25;2.15;;;18.30;99.90;;;;;;5005955;28;20044;-78
2022/05/09 09:44:29;;;;;;;9.52;2.60;;;18.40;99.90;;;;;;5006980;28;20538;-79
2022/05/09 09:47:03;;;;;;;13.13;2.50;;;18.40;99.90;;;;;;5005401;28;20122;-79
2022/05/09 09:49:29;;;;;;;10.50;2.20;;;18.40;99.60;;;;;;5006033;28;20054;-79
2022/05/09 09:51:57;;;;;;;8.85;2.80;;;18.40;99.90;;;;;;5005146;28;20054;-80
2022/05/09 09:54:33;;;;;;;10.40;2.72;;;18.60;99.90;;;;;;5005934;28;20149;-80
2022/05/09 09:57:19;;;;;;;12.15;2.53;;;18.40;99.10;;;;;;5006006;28;20054;-80
2022/05/09 09:59:45;;;;;;;7.50;2.88;;;18.50;99.90;;;;;;5005574;28;20436;-80
2022/05/09 10:02:35;;;;;;;8.93;2.33;;;18.20;99.90;;;;;;5006333;28;20042;-80
2022/05/09 10:05:09;;;;;;;;;;;18.40;99.90;;;;;;5005134;28;20064;-80
2022/05/09 10:07:35;;;;;;;14.15;3.28;;;18.50;99.90;;;;;;4989143;28;19944;-80
2022/05/09 10:10:10;;;;;;;11.73;2.60;;;18.70;99.90;;;;;;5005377;28;20038;-78
2022/05/09 10:12:42;;;;;;;10.48;3.58;;;18.70;99.90;;;;;;5004096;28;20072;-79
2022/05/09 10:15:30;;;;;;;8.40;2.78;;;18.70;99.80;;;;;;5005051;28;20049;-77
2022/05/09 10:17:58;;;;;;;6.78;1.90;;;18.40;98.70;;;;;;5005952;28;20045;-79
2022/05/09 10:20:33;;;;;;;9.55;2.10;;;18.50;99.20;;;;;;5005909;28;20085;-80
2022/05/09 10:26:28;;;;;;;11.35;2.13;;;18.70;98.70;;;;;;4987539;28;20108;-79
2022/05/09 10:29:13;;;;;;;9.85;1.95;;;18.80;98.10;;;;;;5006188;28;20038;-79
2022/05/09 10:31:49;;;;;;;4.80;2.20;;;19.10;98.60;;;;;;5004230;28;20046;-80
2022/05/09 10:34:22;;;;;;;7.63;2.30;;;19.00;96.70;;;;;;5005783;28;20086;-81
2022/05/09 10:36:54;;;;;;;16.08;4.82;;;19.00;98.10;;;;;;5006099;28;20123;-80
2022/05/09 10:39:40;;;;;;;9.63;2.20;;;19.20;97.80;;;;;;5004403;28;20133;-78
2022/05/09 10:42:10;;;;;;;6.97;2.47;;;19.10;96.00;;;;;;5004063;28;20486;-81
2022/05/09 10:45:04;;;;;;;7.78;2.88;;;19.40;96.80;;;;;;5020699;28;20064;-79
2022/05/09 10:47:48;;;;;;;13.02;4.03;;;19.30;94.90;;;;;;5004679;28;20057;-79
2022/05/09 10:50:19;;;;;;;14.57;2.45;;;19.50;96.20;;;;;;5005739;28;20046;-80
2022/05/09 10:53:06;;;;;;;6.65;2.00;;;19.40;94.70;;;;;;4988633;28;20373;-80
2022/05/09 10:55:35;;;;;;;11.20;2.65;;;19.40;95.70;;;;;;5006263;28;20049;-80
2022/05/09 10:58:43;;;;;;;8.52;2.42;;;19.50;96.10;;;;;;5004270;28;20488;-80
2022/05/09 11:01:17;;;;;;;7.57;1.70;;;19.60;93.80;;;;;;5001876;28;20054;-79
2022/05/09 11:03:45;;;;;;;6.82;1.50;;;19.30;94.20;;;;;;5004219;28;20048;-79
2022/05/09 11:06:30;;;;;;;7.20;2.25;;;19.70;94.80;;;;;;5005693;28;20034;-80
2022/05/09 11:09:30;;;;;;;5.80;1.92;;;19.80;93.80;;;;;;5005669;28;20116;-80
2022/05/09 11:12:03;;;;;;;3.63;1.45;;;19.80;93.30;;;;;;4987723;28;20472;-81
2022/05/09 11:15:03;;;;;;;5.45;1.55;;;20.10;95.10;;;;;;5004574;28;20046;-80
2022/05/09 11:17:59;;;;;;;5.80;1.80;;;20.20;93.60;;;;;;5005002;28;20058;-80
2022/05/09 11:20:44;;;;;;;8.32;2.80;;;20.00;92.90;;;;;;5003937;28;20104;-80
2022/05/09 11:23:43;;;;;;;7.13;2.47;;;20.00;92.70;;;;;;5005111;28;20351;-80
2022/05/09 11:26:36;;;;;;;9.27;2.25;;;20.20;92.60;;;;;;5003712;28;20056;-79
2022/05/09 11:29:21;;;;;;;5.15;1.80;;;20.40;93.00;;;;;;4988220;28;20059;-80
2022/05/09 11:32:19;;;;;;;8.27;1.75;;;20.30;93.00;;;;;;5006933;28;20061;-80
2022/05/09 11:34:45;;;;;;;9.35;2.63;;;20.20;91.50;;;;;;5009236;28;20053;-80
2022/05/09 11:37:42;;;;;;;9.43;2.42;;;20.40;93.40;;;;;;5009031;28;20054;-80
2022/05/09 11:40:26;;;;;;;6.43;1.77;;;20.30;92.30;;;;;;5007710;28;20133;-79
2022/05/09 11:46:00;;;;;;;7.40;1.67;;;20.40;91.70;;;;;;5009105;28;20053;-79
2022/05/09 11:48:43;;;;;;;7.25;2.92;;;20.40;92.60;;;;;;4991080;28;20049;-80
2022/05/09 11:51:25;;;;;;;11.30;2.42;;;20.50;91.50;;;;;;5007303;28;20077;-80
2022/05/09 11:53:59;;;;;;;3.03;1.38;;;20.70;92.90;;;;;;5009111;28;20046;-80
2022/05/09 11:56:25;;;;;;;8.95;1.90;;;20.70;92.50;;;;;;5007821;28;20448;-80
2022/05/09 11:58:52;;;;;;;6.25;2.00;;;20.70;93.00;;;;;;5007562;28;20069;-81
2022/05/09 12:01:58;;;;;;;8.90;3.05;;;20.60;92.40;;;;;;5008516;28;20048;-82
2022/05/09 12:04:35;;;;;;;6.60;1.80;;;20.50;91.70;;;;;;5006929;28;20062;-80
2022/05/09 12:07:21;;;;;;;8.75;2.03;;;20.70;92.80;;;;;;5008945;28;20046;-80
2022/05/09 12:10:16;;;;;;;9.60;2.40;;;20.60;91.50;;;;;;4999769;28;20058;-78
2022/05/09 12:12:49;;;;;;;5.93;1.92;;;20.40;92.20;;;;;;5009299;28;20041;-80
2022/05/09 12:15:15;;;;;;;11.38;2.38;;;20.90;93.20;;;;;;5007138;28;20049;-80
2022/05/09 12:17:48;;;;;;;9.15;2.05;;;20.50;91.30;;;;;;5006805;28;20448;-80
2022/05/09 12:20:36;;;;;;;6.38;1.77;;;20.80;92.60;;;;;;5022735;28;20500;-81
2022/05/09 12:23:09;;;;;;;5.75;1.85;;;20.80;91.80;;;;;;5006980;28;20046;-77
2022/05/09 12:25:41;;;;;;;6.57;2.17;;;20.90;92.40;;;;;;5008696;28;20484;-81
2022/05/09 12:28:21;;;;;;;7.20;2.08;;;20.80;91.30;;;;;;5007084;28;20056;-78
2022/05/09 12:30:58;;;;;;;9.73;2.65;;;20.50;91.50;;;;;;5007890;28;20088;-80
2022/05/09 12:33:46;;;;;;;7.28;2.63;;;20.80;92.70;;;;;;5007658;28;20133;-80
2022/05/09 12:36:15;;;;;;;3.25;1.42;;;20.90;92.10;;;;;;5006680;28;20053;-80
2022/05/09 12:38:44;;;;;;;11.10;2.50;;;21.20;93.20;;;;;;5008219;28;20362;-81
2022/05/09 12:41:14;;;;;;;5.65;1.55;;;21.20;93.30;;;;;;5006957;28;20350;-81
2022/05/09 12:43:43;;;;;;;8.38;2.83;;;21.10;92.00;;;;;;5006562;28;20697;-80
2022/05/09 12:46:29;;;;;;;5.10;1.70;;;21.30;92.40;;;;;;5008368;28;20042;-80
2022/05/09 12:48:59;;;;;;;11.63;2.65;;;21.40;92.90;;;;;;4990655;28;20428;-81
2022/05/09 12:51:28;;;;;;;5.80;2.13;;;21.30;92.30;;;;;;5006196;28;20092;-80
2022/05/09 12:53:54;;;;;;;10.00;1.90;;;21.20;91.90;;;;;;5007870;28;20133;-81
2022/05/09 12:56:22;;;;;;;7.47;1.77;;;21.30;92.20;;;;;;5008185;28;20160;-77
2022/05/09 12:59:04;;;;;;;10.23;2.13;;;21.10;91.50;;;;;;5007311;28;20069;-80
2022/05/09 13:01:30;;;;;;;8.48;3.10;;;21.00;91.30;;;;;;5008178;28;20100;-80
2022/05/09 13:03:57;;;;;;;6.57;1.88;;;20.90;91.90;;;;;;5006056;28;20404;-80
2022/05/09 13:06:27;;;;;;;7.57;2.38;;;21.30;92.50;;;;;;5005955;28;20069;-81
2022/05/09 13:08:54;;;;;;;4.68;1.50;;;21.40;92.20;;;;;;5005947;28;20460;-81
2022/05/09 13:11:29;;;;;;;9.68;2.67;;;21.10;91.90;;;;;;5006056;28;20042;-77
2022/05/09 13:14:23;;;;;;;10.75;2.63;;;21.50;91.90;;;;;;5006088;28;20053;-81
2022/05/09 13:17:00;;;;;;;7.90;1.98;;;21.50;91.00;;;;;;5006157;28;20050;-80
2022/05/09 13:19:27;;;;;;;9.10;2.63;;;21.30;91.30;;;;;;5007818;28;20042;-80
2022/05/09 13:21:53;;;;;;;6.80;1.92;;;21.70;91.40;;;;;;5006360;28;20042;-81
2022/05/09 13:24:27;;;;;;;5.10;1.67;;;21.80;91.20;;;;;;5009346;28;20120;-80
2022/05/09 13:26:59;;;;;;;7.60;2.00;;;21.30;90.20;;;;;;5007563;28;20042;-81
2022/05/09 13:29:32;;;;;;;9.02;1.80;;;21.20;92.40;;;;;;5006916;28;20070;-80